createdAt,value
2023-04-18T00:00:28.494Z,13.61
2023-04-18T00:03:30.849Z,13.46
2023-04-18T00:06:32.910Z,13.41
2023-04-18T00:09:36.212Z,13.40
2023-04-18T00:12:39.208Z,13.39
2023-04-18T00:15:43.927Z,13.29
2023-04-18T00:18:46.523Z,13.33
2023-04-18T00:21:49.547Z,13.25
2023-04-18T00:24:52.740Z,13.03
2023-04-18T00:27:55.446Z,13.22
2023-04-18T00:30:57.294Z,13.22
2023-04-18T00:33:59.426Z,13.32
2023-04-18T00:37:01.165Z,13.36
2023-04-18T00:40:05.702Z,13.32
2023-04-18T00:43:08.584Z,13.13
2023-04-18T00:46:11.024Z,13.20
2023-04-18T00:49:13.708Z,13.26
2023-04-18T00:52:16.634Z,13.31
2023-04-18T00:55:20.652Z,13.19
2023-04-18T00:58:24.164Z,13.39
2023-04-18T01:01:26.296Z,13.40
2023-04-18T01:04:28.571Z,13.42
2023-04-18T01:07:31.139Z,13.35
2023-04-18T01:10:36.150Z,13.33
2023-04-18T01:13:38.020Z,13.26
2023-04-18T01:16:40.096Z,13.33
2023-04-18T01:19:42.751Z,13.24
2023-04-18T01:22:44.513Z,13.30
2023-04-18T01:25:49.454Z,13.22
2023-04-18T01:28:51.387Z,13.23
2023-04-18T01:31:53.161Z,13.49
2023-04-18T01:34:55.325Z,13.49
2023-04-18T01:37:57.985Z,13.50
2023-04-18T01:41:02.495Z,13.45
2023-04-18T01:44:04.811Z,13.51
2023-04-18T01:47:07.279Z,13.48
2023-04-18T01:50:09.724Z,13.37
2023-04-18T01:53:12.284Z,13.43
2023-04-18T01:56:15.474Z,13.43
2023-04-18T01:59:17.241Z,13.44
2023-04-18T02:02:19.242Z,13.50
2023-04-18T02:05:21.515Z,13.49
2023-04-18T02:08:23.303Z,13.37
2023-04-18T02:11:26.507Z,13.48
2023-04-18T02:14:31.350Z,13.41
2023-04-18T02:17:33.773Z,13.50
2023-04-18T02:20:36.411Z,13.54
2023-04-18T02:23:38.219Z,13.53
2023-04-18T02:26:41.417Z,13.52
2023-04-18T02:29:44.146Z,13.54
2023-04-18T02:32:46.071Z,13.55
2023-04-18T02:35:48.178Z,13.56
2023-04-18T02:38:49.988Z,13.59
2023-04-18T02:41:53.557Z,13.59
2023-04-18T02:44:55.520Z,13.59
2023-04-18T02:47:57.350Z,13.55
2023-04-18T02:51:03.454Z,13.58
2023-04-18T02:54:05.499Z,13.52
2023-04-18T02:57:08.681Z,13.59
2023-04-18T03:00:11.788Z,13.48
2023-04-18T03:03:13.678Z,13.54
2023-04-18T03:06:15.846Z,13.40
2023-04-18T03:09:18.195Z,13.49
2023-04-18T03:12:21.332Z,13.46
2023-04-18T03:15:23.297Z,13.48
2023-04-18T03:18:26.151Z,13.41
2023-04-18T03:21:27.997Z,13.40
2023-04-18T03:24:30.047Z,13.30
2023-04-18T03:27:33.306Z,13.16
2023-04-18T03:30:36.131Z,13.13
2023-04-18T03:33:39.274Z,13.04
2023-04-18T03:36:42.093Z,12.90
2023-04-18T03:39:43.934Z,12.86
2023-04-18T03:42:47.055Z,12.81
2023-04-18T03:45:49.334Z,12.86
2023-04-18T03:48:51.184Z,12.81
2023-04-18T03:51:54.155Z,12.91
2023-04-18T03:54:56.054Z,12.90
2023-04-18T03:57:59.398Z,12.68
2023-04-18T04:01:01.251Z,12.89
2023-04-18T04:04:03.369Z,12.83
2023-04-18T04:07:06.256Z,12.91
2023-04-18T04:10:08.793Z,12.81
2023-04-18T04:13:12.308Z,12.70
2023-04-18T04:16:14.207Z,12.72
2023-04-18T04:19:16.080Z,12.68
2023-04-18T04:22:17.988Z,12.61
2023-04-18T04:25:20.192Z,12.69
2023-04-18T04:28:23.941Z,12.65
2023-04-18T04:31:26.159Z,12.51
2023-04-18T04:34:28.056Z,12.64
2023-04-18T04:37:29.927Z,12.66
2023-04-18T04:40:31.754Z,12.63
2023-04-18T04:43:34.966Z,12.63
2023-04-18T04:46:39.493Z,12.66
2023-04-18T04:49:41.261Z,12.51
2023-04-18T04:52:43.246Z,12.54
2023-04-18T04:55:45.550Z,12.59
2023-04-18T04:58:49.256Z,12.62
2023-04-18T05:01:56.247Z,12.66
2023-04-18T05:04:58.167Z,12.70
2023-04-18T05:08:00.971Z,12.59
2023-04-18T05:11:02.859Z,12.71
2023-04-18T05:14:06.186Z,12.79
2023-04-18T05:17:08.817Z,12.93
2023-04-18T05:20:11.515Z,12.91
2023-04-18T05:23:13.770Z,12.90
2023-04-18T05:26:15.711Z,12.89
2023-04-18T05:29:18.912Z,12.98
2023-04-18T05:32:22.292Z,12.97
2023-04-18T05:35:24.133Z,13.03
2023-04-18T05:38:26.868Z,13.05
2023-04-18T05:41:28.732Z,13.13
2023-04-18T05:44:32.156Z,13.29
2023-04-18T05:47:34.076Z,13.29
2023-04-18T05:50:36.773Z,13.45
2023-04-18T05:53:38.622Z,13.51
2023-04-18T05:56:40.582Z,13.57
2023-04-18T05:59:44.406Z,13.61
2023-04-18T06:02:46.658Z,12.54
2023-04-18T06:05:49.849Z,12.26
2023-04-18T06:08:51.704Z,12.17
2023-04-18T06:11:53.570Z,12.25
2023-04-18T06:14:56.757Z,12.27
2023-04-18T06:17:58.714Z,12.23
2023-04-18T06:21:00.598Z,12.22
2023-04-18T06:24:02.497Z,12.22
2023-04-18T06:27:05.250Z,12.22
2023-04-18T06:30:10.722Z,12.20
2023-04-18T06:33:12.506Z,12.80
2023-04-18T06:36:14.677Z,13.30
2023-04-18T06:39:16.506Z,13.65
2023-04-18T06:42:19.157Z,13.82
2023-04-18T06:45:24.974Z,13.96
2023-04-18T06:48:26.872Z,14.07
2023-04-18T06:51:29.093Z,14.19
2023-04-18T06:54:30.924Z,14.30
2023-04-18T06:57:33.557Z,14.36
2023-04-18T07:00:36.829Z,14.41
2023-04-18T07:03:39.605Z,13.42
2023-04-18T07:06:42.706Z,13.03
2023-04-18T07:09:44.479Z,12.86
2023-04-18T07:12:47.617Z,12.99
2023-04-18T07:15:51.362Z,13.04
2023-04-18T07:18:53.492Z,13.02
2023-04-18T07:21:56.079Z,12.95
2023-04-18T07:24:58.552Z,12.99
2023-04-18T07:28:00.430Z,12.83
2023-04-18T07:31:04.642Z,12.85
2023-04-18T07:34:06.497Z,12.74
2023-04-18T07:37:08.622Z,12.84
2023-04-18T07:40:11.600Z,12.97
2023-04-18T07:43:15.152Z,13.08
2023-04-18T07:46:18.616Z,13.10
2023-04-18T07:49:20.550Z,13.18
2023-04-18T07:52:22.538Z,13.10
2023-04-18T07:55:24.488Z,13.19
2023-04-18T07:58:26.394Z,13.18
2023-04-18T08:01:29.702Z,13.21
2023-04-18T08:04:31.704Z,13.14
2023-04-18T08:07:34.422Z,13.16
2023-04-18T08:10:36.902Z,13.20
2023-04-18T08:13:39.387Z,13.25
2023-04-18T08:16:42.623Z,13.46
2023-04-18T08:19:45.694Z,13.61
2023-04-18T08:23:04.688Z,13.78
2023-04-18T08:26:08.661Z,13.67
2023-04-18T08:29:11.877Z,14.27
2023-04-18T08:32:15.448Z,14.39
2023-04-18T08:35:17.415Z,14.47
2023-04-18T08:38:19.529Z,14.61
2023-04-18T08:41:23.700Z,14.54
2023-04-18T08:44:25.778Z,14.54
2023-04-18T08:47:31.206Z,14.46
2023-04-18T08:50:33.178Z,14.64
2023-04-18T08:53:35.320Z,14.98
2023-04-18T08:56:37.580Z,14.75
2023-04-18T08:59:40.203Z,14.51
2023-04-18T09:02:44.667Z,14.75
2023-04-18T09:06:08.406Z,14.83
2023-04-18T09:09:10.329Z,14.83
2023-04-18T09:12:14.572Z,14.93
2023-04-18T09:15:18.954Z,15.12
2023-04-18T09:18:22.173Z,15.17
2023-04-18T09:21:24.323Z,15.30
2023-04-18T09:24:29.333Z,15.46
2023-04-18T09:27:34.617Z,15.55
2023-04-18T09:30:39.452Z,15.64
2023-04-18T09:33:54.166Z,15.74
2023-04-18T09:37:07.773Z,15.83
2023-04-18T09:40:18.082Z,16.07
2023-04-18T09:43:21.028Z,15.57
2023-04-18T09:46:22.973Z,15.60
2023-04-18T09:49:27.737Z,15.93
2023-04-18T09:52:34.932Z,16.39
2023-04-18T09:55:40.088Z,15.93
2023-04-18T09:58:43.989Z,16.46
2023-04-18T10:01:48.495Z,16.30
2023-04-18T10:04:54.357Z,16.57
2023-04-18T10:07:57.909Z,16.88
2023-04-18T10:10:59.785Z,16.78
2023-04-18T10:14:07.022Z,16.46
2023-04-18T10:17:09.274Z,16.67
2023-04-18T10:20:20.519Z,16.76
2023-04-18T10:23:36.610Z,16.75
2023-04-18T10:26:47.049Z,16.58
2023-04-18T10:29:50.715Z,16.56
2023-04-18T10:32:55.387Z,16.59
2023-04-18T10:36:05.189Z,16.60
2023-04-18T10:39:21.555Z,16.78
2023-04-18T10:43:06.897Z,17.30
2023-04-18T10:46:23.844Z,16.99
2023-04-18T10:49:31.112Z,16.92
2023-04-18T10:52:35.864Z,16.81
2023-04-18T10:55:43.714Z,17.06
2023-04-18T10:58:51.033Z,17.30
2023-04-18T11:01:55.995Z,17.00
2023-04-18T11:04:59.208Z,17.17
2023-04-18T11:08:02.398Z,17.16
2023-04-18T11:11:09.046Z,17.45
2023-04-18T11:14:10.993Z,17.24
2023-04-18T11:17:19.743Z,16.90
2023-04-18T11:20:21.606Z,16.78
2023-04-18T11:23:25.534Z,17.05
2023-04-18T11:26:29.069Z,17.02
2023-04-18T11:29:32.690Z,17.05
2023-04-18T11:32:35.952Z,16.97
2023-04-18T11:35:39.678Z,16.98
2023-04-18T11:38:43.068Z,17.00
2023-04-18T11:41:50.372Z,16.96
2023-04-18T11:44:52.870Z,16.97
2023-04-18T11:47:59.531Z,17.02
2023-04-18T11:51:01.878Z,17.20
2023-04-18T11:54:05.301Z,17.29
2023-04-18T11:57:20.048Z,17.13
2023-04-18T12:00:32.535Z,17.43
2023-04-18T12:03:34.660Z,17.45
2023-04-18T12:06:46.417Z,17.36
2023-04-18T12:09:52.353Z,17.50
2023-04-18T12:12:56.529Z,17.56
2023-04-18T12:16:01.738Z,17.72
2023-04-18T12:19:03.669Z,17.98
2023-04-18T12:22:06.811Z,18.71
2023-04-18T12:25:20.053Z,18.53
2023-04-18T12:28:26.697Z,18.60
2023-04-18T12:31:28.932Z,18.19
2023-04-18T12:34:31.683Z,18.33
2023-04-18T12:37:33.588Z,17.88
2023-04-18T12:40:39.112Z,17.75
2023-04-18T12:43:40.866Z,17.71
2023-04-18T12:46:42.720Z,17.90
2023-04-18T12:49:44.728Z,17.67
2023-04-18T12:52:47.190Z,17.72
2023-04-18T12:55:51.647Z,17.76
2023-04-18T12:58:53.453Z,17.76
2023-04-18T13:01:55.730Z,17.66
2023-04-18T13:04:58.490Z,17.62
2023-04-18T13:08:12.635Z,17.39
2023-04-18T13:11:21.775Z,17.47
2023-04-18T13:14:23.741Z,18.04
2023-04-18T13:17:26.220Z,18.61
2023-04-18T13:20:28.089Z,18.88
2023-04-18T13:23:29.851Z,18.03
2023-04-18T13:26:36.051Z,18.15
2023-04-18T13:29:38.827Z,18.83
2023-04-18T13:32:41.230Z,19.38
2023-04-18T13:35:44.753Z,18.85
2023-04-18T13:38:46.620Z,18.25
2023-04-18T13:41:49.908Z,18.24
2023-04-18T13:44:51.977Z,18.19
2023-04-18T13:47:54.793Z,18.56
2023-04-18T13:50:57.255Z,18.95
2023-04-18T13:54:01.199Z,19.29
2023-04-18T13:57:04.561Z,19.74
2023-04-18T14:00:08.921Z,19.80
2023-04-18T14:03:11.571Z,19.57
2023-04-18T14:06:13.496Z,19.13
2023-04-18T14:09:16.750Z,19.11
2023-04-18T14:12:19.966Z,19.58
2023-04-18T14:15:21.740Z,19.71
2023-04-18T14:18:24.713Z,19.47
2023-04-18T14:21:27.959Z,19.29
2023-04-18T14:24:29.752Z,19.49
2023-04-18T14:27:33.941Z,19.46
2023-04-18T14:30:36.402Z,19.15
2023-04-18T14:33:38.603Z,19.70
2023-04-18T14:36:40.451Z,19.51
2023-04-18T14:39:42.287Z,19.56
2023-04-18T14:42:46.804Z,19.62
2023-04-18T14:45:48.654Z,19.32
2023-04-18T14:48:50.976Z,19.07
2023-04-18T14:51:53.443Z,19.03
2023-04-18T14:54:55.427Z,19.23
2023-04-18T14:57:58.582Z,18.98
2023-04-18T15:01:01.330Z,18.75
2023-04-18T15:04:04.435Z,18.76
2023-04-18T15:07:07.703Z,18.80
2023-04-18T15:10:12.715Z,18.68
2023-04-18T15:13:16.700Z,18.59
2023-04-18T15:16:18.532Z,18.42
2023-04-18T15:19:21.315Z,18.50
2023-04-18T15:22:23.247Z,18.50
2023-04-18T15:25:26.152Z,18.59
2023-04-18T15:28:30.899Z,18.46
2023-04-18T15:31:32.816Z,18.58
2023-04-18T15:34:35.393Z,18.52
2023-04-18T15:37:37.259Z,18.59
2023-04-18T15:40:39.110Z,18.43
2023-04-18T15:43:42.897Z,18.07
2023-04-18T15:46:44.769Z,17.81
2023-04-18T15:49:47.228Z,17.49
2023-04-18T15:52:49.167Z,17.33
2023-04-18T15:55:51.483Z,17.58
2023-04-18T15:58:57.565Z,17.58
2023-04-18T16:01:59.526Z,17.56
2023-04-18T16:05:02.218Z,17.37
2023-04-18T16:08:04.157Z,17.17
2023-04-18T16:11:06.975Z,16.66
2023-04-18T16:14:10.605Z,16.72
2023-04-18T16:17:12.381Z,16.27
2023-04-18T16:20:15.438Z,16.29
2023-04-18T16:23:17.260Z,16.22
2023-04-18T16:26:19.115Z,15.96
2023-04-18T16:29:22.670Z,16.14
2023-04-18T16:32:24.592Z,15.92
2023-04-18T16:35:26.640Z,15.70
2023-04-18T16:38:28.492Z,15.62
2023-04-18T16:41:30.958Z,15.62
2023-04-18T16:44:34.568Z,15.91
2023-04-18T16:47:36.864Z,15.41
2023-04-18T16:50:38.679Z,15.57
2023-04-18T16:53:41.175Z,15.27
2023-04-18T16:56:44.829Z,15.45
2023-04-18T16:59:50.576Z,15.09
2023-04-18T17:02:53.359Z,14.82
2023-04-18T17:05:56.195Z,15.05
2023-04-18T17:08:59.073Z,14.74
2023-04-18T17:12:01.984Z,14.86
2023-04-18T17:15:07.036Z,15.32
2023-04-18T17:18:09.308Z,15.30
2023-04-18T17:21:12.663Z,15.12
2023-04-18T17:24:15.261Z,14.91
2023-04-18T17:27:18.325Z,14.97
2023-04-18T17:30:23.073Z,14.59
2023-04-18T17:33:25.186Z,14.43
2023-04-18T17:36:29.480Z,14.22
2023-04-18T17:39:33.072Z,14.15
2023-04-18T17:42:35.893Z,14.10
2023-04-18T17:45:41.666Z,13.97
2023-04-18T17:48:47.296Z,13.74
2023-04-18T17:51:52.980Z,13.65
2023-04-18T17:54:55.851Z,13.54
2023-04-18T17:57:58.521Z,13.58
2023-04-18T18:01:04.308Z,13.39
2023-04-18T18:04:08.800Z,13.30
2023-04-18T18:07:11.916Z,13.34
2023-04-18T18:10:16.117Z,13.50
2023-04-18T18:13:20.882Z,13.57
2023-04-18T18:16:25.264Z,13.61
2023-04-18T18:19:29.434Z,13.54
2023-04-18T18:22:31.708Z,13.34
2023-04-18T18:25:37.065Z,13.58
2023-04-18T18:28:39.004Z,13.38
2023-04-18T18:31:43.975Z,13.58
2023-04-18T18:34:48.021Z,13.47
2023-04-18T18:37:51.545Z,13.29
2023-04-18T18:40:54.234Z,13.14
2023-04-18T18:43:56.954Z,13.21
2023-04-18T18:47:01.754Z,13.34
2023-04-18T18:50:07.959Z,13.07
2023-04-18T18:53:12.243Z,13.06
2023-04-18T18:56:16.705Z,12.94
2023-04-18T18:59:18.655Z,12.99
2023-04-18T19:02:22.584Z,13.10
2023-04-18T19:05:25.264Z,12.85
2023-04-18T19:08:27.948Z,12.86
2023-04-18T19:11:30.345Z,13.10
2023-04-18T19:14:35.761Z,13.34
2023-04-18T19:17:39.584Z,13.48
2023-04-18T19:20:43.047Z,13.92
2023-04-18T19:23:45.822Z,13.90
2023-04-18T19:26:49.265Z,13.80
2023-04-18T19:29:52.200Z,13.79
2023-04-18T19:32:56.518Z,14.09
2023-04-18T19:36:00.498Z,13.71
2023-04-18T19:39:03.377Z,14.12
2023-04-18T19:42:06.245Z,13.56
2023-04-18T19:45:12.695Z,13.41
2023-04-18T19:48:17.101Z,13.46
2023-04-18T19:51:22.158Z,13.49
2023-04-18T19:54:24.974Z,13.52
2023-04-18T19:57:29.070Z,13.43
2023-04-18T20:00:31.926Z,13.30
2023-04-18T20:03:35.619Z,13.60
2023-04-18T20:06:38.258Z,13.81
2023-04-18T20:09:40.577Z,14.04
2023-04-18T20:12:43.860Z,14.20
2023-04-18T20:15:46.920Z,14.25
2023-04-18T20:18:55.062Z,14.17
2023-04-18T20:21:58.531Z,13.89
2023-04-18T20:25:01.704Z,13.86
2023-04-18T20:28:04.924Z,13.79
2023-04-18T20:31:08.118Z,13.92
2023-04-18T20:34:11.882Z,13.86
2023-04-18T20:37:16.521Z,13.70
2023-04-18T20:40:18.694Z,13.66
2023-04-18T20:43:20.788Z,13.58
2023-04-18T20:46:25.024Z,13.46
2023-04-18T20:49:29.730Z,13.36
2023-04-18T20:52:32.989Z,13.46
2023-04-18T20:55:35.172Z,13.52
2023-04-18T20:58:36.955Z,13.51
2023-04-18T21:01:38.753Z,13.41
2023-04-18T21:04:42.137Z,13.68
2023-04-18T21:07:45.837Z,13.85
2023-04-18T21:10:47.805Z,13.85
2023-04-18T21:13:49.691Z,13.92
2023-04-18T21:16:51.511Z,14.14
2023-04-18T21:19:55.917Z,14.12
2023-04-18T21:22:58.497Z,14.25
2023-04-18T21:26:00.687Z,14.27
2023-04-18T21:29:06.645Z,14.28
2023-04-18T21:32:09.479Z,14.33
2023-04-18T21:35:12.883Z,14.39
2023-04-18T21:38:15.415Z,14.33
2023-04-18T21:41:17.249Z,14.28
2023-04-18T21:44:19.704Z,14.42
2023-04-18T21:47:21.831Z,14.46
2023-04-18T21:50:25.860Z,14.43
2023-04-18T21:53:27.674Z,14.43
2023-04-18T21:56:29.456Z,14.36
2023-04-18T21:59:31.348Z,14.29
2023-04-18T22:02:33.211Z,14.33
2023-04-18T22:05:39.004Z,14.35
2023-04-18T22:08:42.067Z,14.28
2023-04-18T22:11:43.933Z,14.36
2023-04-18T22:14:48.460Z,14.35
2023-04-18T22:17:50.612Z,14.39
2023-04-18T22:20:54.911Z,14.32
2023-04-18T22:27:26.309Z,14.40
2023-04-18T22:30:28.558Z,14.36
2023-04-18T22:33:30.511Z,14.34
2023-04-18T22:36:34.690Z,14.34
2023-04-18T22:39:36.492Z,14.35
2023-04-18T22:42:38.954Z,14.24
2023-04-18T22:45:41.312Z,14.16
2023-04-18T22:48:44.871Z,14.11
2023-04-18T22:51:48.629Z,14.22
2023-04-18T22:54:50.667Z,14.18
2023-04-18T22:57:52.463Z,14.28
2023-04-18T23:00:54.290Z,14.25
2023-04-18T23:03:56.579Z,14.23
2023-04-18T23:07:00.622Z,14.19
2023-04-18T23:10:04.824Z,14.21
2023-04-18T23:13:06.612Z,14.10
2023-04-18T23:16:08.682Z,14.10
2023-04-18T23:19:10.712Z,14.07
2023-04-18T23:22:14.691Z,14.13
2023-04-18T23:25:16.633Z,14.11
2023-04-18T23:28:19.181Z,14.03
2023-04-18T23:31:22.062Z,14.02
2023-04-18T23:34:24.223Z,14.14
2023-04-18T23:37:27.468Z,14.18
2023-04-18T23:40:30.320Z,14.15
2023-04-18T23:43:32.273Z,14.11
2023-04-18T23:46:36.499Z,13.86
2023-04-18T23:49:38.624Z,14.00
2023-04-18T23:52:42.571Z,14.12
2023-04-18T23:55:44.473Z,13.93
2023-04-18T23:58:47.038Z,14.01
